createdAt,value
2019-05-13T00:02:24.671Z,48.25
2019-05-13T00:04:59.304Z,48.59
2019-05-13T00:07:34.230Z,48.33
2019-05-13T00:10:09.709Z,48.77
2019-05-13T00:12:44.915Z,48.61
2019-05-13T00:15:19.585Z,48.66
2019-05-13T00:17:54.388Z,49.50
2019-05-13T00:20:28.945Z,49.47
2019-05-13T00:23:04.307Z,49.71
2019-05-13T00:25:39.941Z,49.51
2019-05-13T00:28:14.526Z,50.01
2019-05-13T00:30:49.252Z,49.92
2019-05-13T00:33:24.354Z,50.96
2019-05-13T00:35:57.861Z,51.06
2019-05-13T00:40:14.118Z,50.89
2019-05-13T00:42:47.786Z,50.89
2019-05-13T00:45:24.523Z,51.25
2019-05-13T00:47:58.863Z,51.70
2019-05-13T00:50:33.546Z,51.98
2019-05-13T00:53:07.719Z,52.17
2019-05-13T00:55:44.244Z,52.06
2019-05-13T00:58:18.130Z,52.32
2019-05-13T01:00:54.677Z,52.88
2019-05-13T01:03:28.960Z,53.53
2019-05-13T01:06:04.606Z,53.16
2019-05-13T01:08:39.279Z,53.15
2019-05-13T01:11:13.759Z,52.97
2019-05-13T01:13:48.276Z,53.34
2019-05-13T01:16:23.470Z,53.50
2019-05-13T01:18:57.939Z,53.82
2019-05-13T01:21:34.338Z,53.68
2019-05-13T01:24:08.348Z,53.46
2019-05-13T01:26:43.840Z,54.22
2019-05-13T01:29:18.112Z,54.45
2019-05-13T01:31:53.806Z,54.09
2019-05-13T01:34:28.657Z,54.09
2019-05-13T01:37:04.260Z,53.85
2019-05-13T01:39:39.273Z,53.53
2019-05-13T01:42:13.879Z,53.89
2019-05-13T01:44:50.113Z,54.61
2019-05-13T01:47:24.326Z,54.34
2019-05-13T01:49:58.858Z,54.34
2019-05-13T01:52:33.858Z,54.52
2019-05-13T01:55:08.238Z,54.72
2019-05-13T01:57:44.405Z,54.64
2019-05-13T02:00:20.592Z,54.83
2019-05-13T02:02:54.915Z,54.59
2019-05-13T02:05:29.353Z,54.69
2019-05-13T02:08:04.686Z,54.53
2019-05-13T02:10:55.256Z,54.30
2019-05-13T02:13:29.726Z,54.72
2019-05-13T02:16:04.500Z,54.54
2019-05-13T02:18:39.274Z,54.54
2019-05-13T02:21:13.970Z,54.46
2019-05-13T02:23:48.699Z,54.71
2019-05-13T02:26:24.916Z,54.71
2019-05-13T02:28:57.861Z,54.74
2019-05-13T02:31:45.398Z,54.74
2019-05-13T02:34:08.325Z,54.61
2019-05-13T02:36:43.901Z,54.48
2019-05-13T02:39:19.366Z,54.63
2019-05-13T02:41:57.684Z,54.52
2019-05-13T02:44:33.394Z,54.34
2019-05-13T02:47:07.307Z,54.34
2019-05-13T02:49:43.043Z,54.24
2019-05-13T02:52:17.936Z,54.28
2019-05-13T02:54:52.849Z,54.27
2019-05-13T02:57:27.652Z,54.57
2019-05-13T03:00:04.112Z,54.57
2019-05-13T03:02:37.953Z,54.96
2019-05-13T03:05:13.730Z,55.56
2019-05-13T03:07:48.823Z,55.56
2019-05-13T03:10:23.937Z,55.79
2019-05-13T03:12:58.334Z,55.79
2019-05-13T03:15:43.282Z,56.16
2019-05-13T03:18:22.287Z,56.18
2019-05-13T03:20:55.272Z,56.74
2019-05-13T03:23:32.422Z,56.90
2019-05-13T03:26:05.856Z,57.02
2019-05-13T03:28:39.028Z,56.90
2019-05-13T03:31:16.815Z,56.75
2019-05-13T03:33:48.118Z,56.90
2019-05-13T03:36:26.047Z,57.07
2019-05-13T03:39:06.965Z,57.17
2019-05-13T03:41:42.401Z,57.55
2019-05-13T03:44:15.872Z,57.75
2019-05-13T03:46:52.983Z,57.99
2019-05-13T03:49:26.559Z,57.70
2019-05-13T03:52:03.087Z,57.35
2019-05-13T03:54:37.910Z,57.44
2019-05-13T03:57:13.672Z,57.52
2019-05-13T03:59:47.893Z,57.69
2019-05-13T04:02:22.626Z,58.23
2019-05-13T04:04:59.239Z,58.41
2019-05-13T04:07:33.663Z,58.17
2019-05-13T04:10:12.849Z,58.17
2019-05-13T04:12:45.804Z,58.08
2019-05-13T04:15:18.999Z,58.05
2019-05-13T04:17:53.376Z,58.13
2019-05-13T04:20:28.260Z,58.26
2019-05-13T04:23:04.271Z,58.15
2019-05-13T04:25:39.814Z,58.52
2019-05-13T04:28:15.272Z,58.82
2019-05-13T04:30:52.598Z,58.99
2019-05-13T04:33:26.298Z,59.00
2019-05-13T04:36:02.553Z,59.00
2019-05-13T04:38:36.901Z,59.44
2019-05-13T04:41:12.001Z,59.23
2019-05-13T04:43:45.264Z,59.26
2019-05-13T04:46:22.886Z,58.61
2019-05-13T04:48:56.932Z,58.61
2019-05-13T04:51:32.823Z,58.84
2019-05-13T04:54:07.283Z,58.42
2019-05-13T04:56:42.352Z,58.32
2019-05-13T04:59:18.333Z,58.08
2019-05-13T05:02:16.524Z,57.75
2019-05-13T05:05:04.320Z,58.32
2019-05-13T05:08:54.716Z,58.23
2019-05-13T05:13:02.349Z,57.53
2019-05-13T05:16:25.298Z,57.14
2019-05-13T05:20:03.677Z,57.13
2019-05-13T05:23:35.932Z,57.49
2019-05-13T05:27:01.444Z,56.93
2019-05-13T05:30:04.758Z,56.49
2019-05-13T05:33:26.674Z,56.19
2019-05-13T05:36:35.311Z,56.24
2019-05-13T05:39:24.279Z,54.92
2019-05-13T05:42:01.994Z,55.28
2019-05-13T05:44:35.914Z,55.57
2019-05-13T05:47:11.164Z,55.76
2019-05-13T05:49:47.267Z,54.15
2019-05-13T05:52:23.751Z,54.15
2019-05-13T05:55:02.439Z,54.06
2019-05-13T05:57:41.828Z,54.24
2019-05-13T06:00:17.765Z,54.51
2019-05-13T06:02:53.182Z,54.51
2019-05-13T06:05:31.765Z,54.17
2019-05-13T06:08:05.938Z,52.99
2019-05-13T06:10:48.992Z,53.44
2019-05-13T06:13:15.263Z,52.30
2019-05-13T06:15:51.412Z,51.81
2019-05-13T06:18:25.732Z,52.27
2019-05-13T06:21:01.744Z,50.83
2019-05-13T06:23:34.693Z,50.91
2019-05-13T06:26:09.259Z,50.73
2019-05-13T06:28:43.728Z,50.31
2019-05-13T06:31:17.850Z,50.37
2019-05-13T06:33:52.264Z,49.56
2019-05-13T06:36:26.767Z,48.70
2019-05-13T06:39:02.440Z,48.40
2019-05-13T06:41:37.271Z,49.47
2019-05-13T06:44:12.334Z,47.97
2019-05-13T06:46:46.947Z,47.08
2019-05-13T06:49:21.653Z,46.85
2019-05-13T06:51:56.311Z,47.31
2019-05-13T06:54:33.166Z,46.12
2019-05-13T06:57:06.714Z,46.24
2019-05-13T06:59:41.952Z,46.86
2019-05-13T07:02:16.679Z,45.42
2019-05-13T07:04:51.779Z,45.42
2019-05-13T07:07:24.854Z,46.12
2019-05-13T07:10:02.230Z,44.30
2019-05-13T07:12:35.645Z,43.14
2019-05-13T07:15:11.559Z,43.14
2019-05-13T07:17:46.316Z,43.23
2019-05-13T07:20:22.647Z,42.37
2019-05-13T07:22:57.337Z,42.26
2019-05-13T07:25:32.787Z,42.06
2019-05-13T07:28:07.546Z,42.77
2019-05-13T07:30:44.653Z,42.59
2019-05-13T07:33:21.202Z,41.02
2019-05-13T07:35:58.419Z,41.09
2019-05-13T07:38:32.481Z,40.13
2019-05-13T07:41:07.728Z,40.89
2019-05-13T07:43:42.741Z,39.68
2019-05-13T07:46:17.207Z,39.09
2019-05-13T07:48:52.644Z,38.32
2019-05-13T07:51:27.664Z,38.32
2019-05-13T07:54:02.204Z,39.27
2019-05-13T07:56:37.268Z,38.67
2019-05-13T07:59:12.447Z,38.70
2019-05-13T08:01:47.114Z,38.62
2019-05-13T08:04:26.826Z,38.03
2019-05-13T08:07:01.921Z,38.45
2019-05-13T08:09:37.309Z,36.49
2019-05-13T08:12:14.463Z,37.19
2019-05-13T08:14:47.105Z,36.80
2019-05-13T08:17:22.463Z,36.42
2019-05-13T08:19:57.305Z,36.45
2019-05-13T08:22:32.259Z,35.42
2019-05-13T08:25:07.537Z,34.89
2019-05-13T08:27:42.269Z,33.91
2019-05-13T08:30:18.203Z,34.51
2019-05-13T08:32:54.274Z,34.43
2019-05-13T08:35:31.331Z,34.63
2019-05-13T08:38:05.275Z,34.31
2019-05-13T08:40:42.185Z,32.20
2019-05-13T08:43:16.316Z,30.05
2019-05-13T08:45:52.421Z,28.94
2019-05-13T08:48:26.030Z,28.90
2019-05-13T08:51:02.743Z,28.18
2019-05-13T08:53:35.940Z,28.35
2019-05-13T08:56:12.204Z,27.56
2019-05-13T08:58:46.116Z,26.52
2019-05-13T09:01:22.739Z,28.43
2019-05-13T09:04:01.852Z,28.43
2019-05-13T09:06:35.243Z,29.87
2019-05-13T09:09:11.625Z,29.87
2019-05-13T09:11:45.376Z,32.10
2019-05-13T09:14:21.930Z,28.04
2019-05-13T09:16:56.295Z,28.04
2019-05-13T09:19:32.151Z,28.59
2019-05-13T09:22:07.443Z,29.51
2019-05-13T09:24:42.924Z,27.69
2019-05-13T09:27:17.302Z,28.18
2019-05-13T09:29:53.677Z,28.51
2019-05-13T09:32:27.938Z,26.37
2019-05-13T09:35:03.140Z,25.62
2019-05-13T09:37:37.714Z,25.40
2019-05-13T09:40:12.869Z,27.75
2019-05-13T09:42:51.903Z,27.99
2019-05-13T09:45:23.633Z,25.59
2019-05-13T09:47:58.256Z,28.21
2019-05-13T09:50:36.059Z,28.21
2019-05-13T09:53:11.384Z,28.66
2019-05-13T09:55:45.279Z,28.66
2019-05-13T09:58:22.171Z,26.04
2019-05-13T10:00:56.936Z,26.03
2019-05-13T10:03:33.012Z,24.25
2019-05-13T10:06:07.319Z,23.63
2019-05-13T10:08:42.271Z,25.78
2019-05-13T10:11:16.937Z,25.93
2019-05-13T10:13:51.611Z,25.22
2019-05-13T10:16:26.280Z,22.52
2019-05-13T10:19:01.835Z,22.52
2019-05-13T10:21:38.315Z,22.52
2019-05-13T10:24:14.271Z,23.26
2019-05-13T10:26:51.556Z,20.65
2019-05-13T10:29:26.295Z,20.65
2019-05-13T10:32:02.754Z,21.41
2019-05-13T10:34:37.682Z,20.17
2019-05-13T10:37:11.532Z,19.81
2019-05-13T10:39:46.285Z,20.24
2019-05-13T10:42:22.191Z,21.34
2019-05-13T10:44:58.294Z,19.45
2019-05-13T10:47:33.076Z,19.27
2019-05-13T10:50:08.638Z,19.17
2019-05-13T10:52:43.099Z,19.06
2019-05-13T10:55:18.132Z,19.32
2019-05-13T10:57:52.693Z,18.49
2019-05-13T11:00:57.108Z,18.49
2019-05-13T11:03:32.891Z,18.77
2019-05-13T11:06:07.933Z,18.09
2019-05-13T11:08:42.671Z,16.26
2019-05-13T11:11:17.262Z,17.95
2019-05-13T11:16:03.107Z,16.70
2019-05-13T11:18:38.272Z,16.88
2019-05-13T11:21:13.127Z,16.88
2019-05-13T11:23:48.285Z,16.84
2019-05-13T11:26:24.511Z,16.18
2019-05-13T11:28:59.272Z,16.67
2019-05-13T11:31:33.685Z,15.05
2019-05-13T11:34:08.119Z,15.06
2019-05-13T11:36:43.439Z,15.20
2019-05-13T11:39:21.616Z,14.15
2019-05-13T11:41:55.308Z,13.57
2019-05-13T11:44:32.251Z,13.94
2019-05-13T11:47:05.917Z,13.61
2019-05-13T11:49:42.509Z,13.52
2019-05-13T11:52:16.292Z,14.47
2019-05-13T11:54:53.811Z,14.47
2019-05-13T11:57:26.860Z,14.58
2019-05-13T12:00:02.475Z,13.80
2019-05-13T12:04:53.552Z,16.92
2019-05-13T12:07:26.700Z,18.44
2019-05-13T12:10:00.165Z,18.44
2019-05-13T12:12:35.628Z,16.74
2019-05-13T12:15:33.690Z,16.51
2019-05-13T12:17:45.947Z,15.68
2019-05-13T12:20:20.330Z,16.10
2019-05-13T12:22:54.754Z,16.10
2019-05-13T12:25:27.792Z,14.92
2019-05-13T12:28:03.442Z,14.26
2019-05-13T12:30:37.952Z,14.26
2019-05-13T12:33:13.595Z,13.30
2019-05-13T12:35:46.605Z,15.59
2019-05-13T12:38:22.605Z,14.99
2019-05-13T12:40:57.242Z,14.45
2019-05-13T12:43:32.047Z,13.98
2019-05-13T12:46:06.808Z,13.88
2019-05-13T12:48:41.728Z,14.44
2019-05-13T12:51:14.682Z,14.03
2019-05-13T12:53:48.676Z,14.03
2019-05-13T12:56:23.648Z,13.95
2019-05-13T12:58:58.150Z,14.54
2019-05-13T13:01:32.533Z,19.24
2019-05-13T13:04:06.938Z,19.24
2019-05-13T13:06:45.172Z,19.43
2019-05-13T13:09:17.860Z,19.15
2019-05-13T13:11:54.423Z,21.51
2019-05-13T13:14:34.935Z,22.42
2019-05-13T13:17:04.210Z,22.42
2019-05-13T13:19:41.242Z,22.86
2019-05-13T13:22:15.286Z,24.19
2019-05-13T13:24:55.766Z,22.66
2019-05-13T13:27:57.890Z,23.89
2019-05-13T13:30:04.421Z,23.52
2019-05-13T13:32:38.257Z,22.75
2019-05-13T13:35:14.996Z,18.17
2019-05-13T13:37:52.900Z,17.27
2019-05-13T13:40:29.688Z,20.23
2019-05-13T13:43:05.650Z,21.42
2019-05-13T13:46:06.579Z,23.37
2019-05-13T13:48:18.395Z,24.79
2019-05-13T13:50:55.564Z,24.16
2019-05-13T13:53:32.703Z,24.90
2019-05-13T13:56:07.298Z,24.90
2019-05-13T13:58:43.682Z,20.03
2019-05-13T14:01:25.985Z,22.48
2019-05-13T14:03:56.374Z,24.14
2019-05-13T14:07:22.767Z,24.14
2019-05-13T14:09:12.065Z,24.20
2019-05-13T14:11:47.489Z,25.36
2019-05-13T14:14:23.302Z,26.51
2019-05-13T14:17:02.437Z,26.51
2019-05-13T14:19:37.975Z,26.10
2019-05-13T14:22:13.696Z,22.74
2019-05-13T14:24:47.881Z,22.74
2019-05-13T14:27:22.911Z,21.28
2019-05-13T14:29:56.922Z,22.92
2019-05-13T14:32:33.026Z,25.27
2019-05-13T14:35:12.015Z,25.23
2019-05-13T14:37:46.982Z,25.23
2019-05-13T14:40:25.409Z,25.58
2019-05-13T14:43:03.649Z,27.00
2019-05-13T14:45:38.276Z,27.00
2019-05-13T14:48:14.300Z,26.73
2019-05-13T14:50:53.299Z,26.73
2019-05-13T14:53:31.853Z,28.21
2019-05-13T14:56:06.632Z,26.89
2019-05-13T14:58:42.525Z,28.09
2019-05-13T15:01:19.753Z,27.39
2019-05-13T15:03:56.060Z,28.27
2019-05-13T15:06:34.317Z,28.06
2019-05-13T15:09:12.576Z,26.24
2019-05-13T15:11:52.739Z,25.71
2019-05-13T15:14:27.977Z,24.69
2019-05-13T15:17:07.548Z,25.18
2019-05-13T15:19:45.617Z,25.18
2019-05-13T15:22:22.396Z,27.04
2019-05-13T15:24:57.568Z,27.04
2019-05-13T15:27:34.489Z,27.23
2019-05-13T15:30:17.772Z,28.14
2019-05-13T15:32:52.598Z,28.14
2019-05-13T15:35:28.007Z,29.28
2019-05-13T15:38:06.710Z,29.67
2019-05-13T15:40:42.986Z,29.21
2019-05-13T15:43:22.317Z,26.96
2019-05-13T15:46:05.952Z,27.79
2019-05-13T15:48:44.647Z,27.92
2019-05-13T15:51:19.155Z,26.66
2019-05-13T15:54:02.313Z,26.58
2019-05-13T15:56:37.578Z,26.58
2019-05-13T15:59:13.623Z,27.85
2019-05-13T16:01:52.319Z,27.69
2019-05-13T16:04:28.365Z,27.69
2019-05-13T16:07:08.320Z,27.03
2019-05-13T16:09:45.005Z,27.23
2019-05-13T16:12:24.312Z,28.47
2019-05-13T16:15:01.998Z,28.08
2019-05-13T16:17:44.932Z,28.41
2019-05-13T16:20:21.334Z,28.41
2019-05-13T16:23:02.550Z,27.60
2019-05-13T16:25:41.657Z,28.21
2019-05-13T16:28:22.318Z,28.72
2019-05-13T16:31:02.646Z,27.70
2019-05-13T16:33:42.942Z,27.04
2019-05-13T16:36:23.478Z,27.08
2019-05-13T16:39:04.674Z,28.27
2019-05-13T16:41:45.423Z,28.27
2019-05-13T16:44:22.518Z,28.54
2019-05-13T16:47:01.505Z,28.10
2019-05-13T16:49:44.354Z,28.10
2019-05-13T16:52:18.324Z,28.61
2019-05-13T16:55:06.534Z,28.34
2019-05-13T16:57:47.469Z,28.81
2019-05-13T17:00:25.337Z,28.81
2019-05-13T17:03:02.537Z,28.83
2019-05-13T17:05:46.260Z,27.89
2019-05-13T17:08:23.487Z,28.80
2019-05-13T17:11:06.503Z,29.22
2019-05-13T17:13:45.585Z,29.90
2019-05-13T17:16:21.567Z,28.81
2019-05-13T17:19:01.401Z,29.55
2019-05-13T17:21:37.711Z,29.97
2019-05-13T17:24:15.781Z,30.47
2019-05-13T17:26:52.248Z,30.61
2019-05-13T17:29:31.727Z,31.22
2019-05-13T17:32:11.672Z,30.74
2019-05-13T17:34:51.408Z,30.74
2019-05-13T17:37:27.347Z,31.14
2019-05-13T17:40:05.672Z,31.35
2019-05-13T17:42:44.686Z,32.39
2019-05-13T17:45:31.338Z,31.94
2019-05-13T17:48:25.089Z,31.94
2019-05-13T17:50:52.117Z,32.09
2019-05-13T17:53:32.561Z,32.26
2019-05-13T17:56:13.366Z,32.29
2019-05-13T17:58:51.706Z,32.65
2019-05-13T18:01:32.325Z,33.26
2019-05-13T18:04:13.320Z,33.59
2019-05-13T18:06:58.843Z,33.59
2019-05-13T18:09:37.709Z,34.00
2019-05-13T18:12:18.926Z,34.00
2019-05-13T18:15:02.359Z,34.20
2019-05-13T18:17:41.823Z,34.97
2019-05-13T18:20:23.788Z,34.75
2019-05-13T18:23:01.728Z,34.75
2019-05-13T18:25:44.363Z,34.72
2019-05-13T18:28:30.936Z,35.01
2019-05-13T18:31:05.564Z,35.40
2019-05-13T18:33:44.322Z,36.97
2019-05-13T18:36:25.548Z,36.78
2019-05-13T18:39:06.334Z,36.67
2019-05-13T18:41:48.333Z,36.67
2019-05-13T18:44:31.602Z,37.27
2019-05-13T18:47:09.039Z,37.27
2019-05-13T18:50:08.768Z,38.24
2019-05-13T18:52:48.336Z,38.75
2019-05-13T18:55:27.336Z,40.27
2019-05-13T18:58:05.597Z,41.07
2019-05-13T19:00:48.784Z,41.45
2019-05-13T19:03:32.559Z,41.45
2019-05-13T19:06:34.326Z,42.43
2019-05-13T19:09:11.515Z,42.43
2019-05-13T19:12:01.222Z,42.22
2019-05-13T19:14:37.323Z,41.94
2019-05-13T19:17:21.845Z,42.10
2019-05-13T19:20:08.815Z,42.72
2019-05-13T19:22:47.341Z,42.94
2019-05-13T19:25:31.246Z,42.97
2019-05-13T19:28:11.896Z,43.12
2019-05-13T19:30:56.789Z,43.36
2019-05-13T19:33:36.891Z,43.60
2019-05-13T19:36:21.094Z,43.99
2019-05-13T19:39:05.982Z,43.74
2019-05-13T19:41:43.330Z,43.35
2019-05-13T19:44:26.990Z,42.81
2019-05-13T19:47:05.935Z,43.63
2019-05-13T19:49:48.751Z,43.35
2019-05-13T19:52:32.909Z,43.35
2019-05-13T19:55:11.887Z,43.76
2019-05-13T19:57:48.329Z,44.24
2019-05-13T20:00:26.330Z,44.04
2019-05-13T20:03:06.080Z,44.23
2019-05-13T20:05:51.414Z,44.42
2019-05-13T20:08:32.444Z,44.59
2019-05-13T20:11:11.544Z,45.23
2019-05-13T20:13:48.318Z,45.84
2019-05-13T20:16:25.848Z,45.53
2019-05-13T20:19:02.324Z,46.33
2019-05-13T20:21:53.567Z,46.33
2019-05-13T20:24:31.414Z,45.46
2019-05-13T20:27:07.353Z,45.46
2019-05-13T20:29:45.326Z,44.60
2019-05-13T20:32:22.274Z,44.50
2019-05-13T20:35:02.169Z,44.15
2019-05-13T20:37:38.036Z,43.84
2019-05-13T20:40:15.326Z,44.67
2019-05-13T20:42:51.655Z,44.67
2019-05-13T20:45:26.310Z,44.26
2019-05-13T20:48:02.020Z,43.63
2019-05-13T20:50:41.101Z,42.83
2019-05-13T20:53:16.455Z,42.83
2019-05-13T20:55:52.459Z,43.32
2019-05-13T20:58:28.310Z,43.87
2019-05-13T21:01:05.803Z,42.78
2019-05-13T21:03:41.867Z,44.07
2019-05-13T21:06:16.006Z,44.07
2019-05-13T21:08:52.143Z,43.54
2019-05-13T21:11:27.531Z,44.17
2019-05-13T21:14:04.297Z,44.36
2019-05-13T21:16:41.695Z,44.14
2019-05-13T21:19:17.407Z,44.27
2019-05-13T21:21:52.459Z,44.88
2019-05-13T21:24:27.994Z,44.77
2019-05-13T21:27:03.313Z,45.30
2019-05-13T21:29:38.329Z,45.85
2019-05-13T21:32:13.917Z,46.58
2019-05-13T21:34:48.293Z,46.90
2019-05-13T21:37:22.735Z,47.43
2019-05-13T21:39:56.953Z,47.43
2019-05-13T21:42:32.026Z,47.74
2019-05-13T21:45:05.697Z,46.68
2019-05-13T21:47:39.941Z,46.68
2019-05-13T21:50:14.700Z,46.46
2019-05-13T21:52:51.458Z,46.23
2019-05-13T21:55:25.151Z,46.30
2019-05-13T21:57:59.712Z,46.35
2019-05-13T22:00:44.559Z,46.35
2019-05-13T22:03:19.104Z,46.79
2019-05-13T22:05:53.555Z,47.15
2019-05-13T22:08:28.278Z,47.15
2019-05-13T22:11:03.883Z,45.37
2019-05-13T22:13:36.869Z,45.37
2019-05-13T22:16:10.943Z,45.82
2019-05-13T22:18:44.007Z,46.46
2019-05-13T22:21:16.851Z,47.27
2019-05-13T22:23:51.794Z,47.33
2019-05-13T22:26:26.136Z,47.15
2019-05-13T22:29:02.672Z,45.44
2019-05-13T22:31:36.799Z,45.44
2019-05-13T22:34:11.924Z,45.38
2019-05-13T22:36:45.942Z,45.66
2019-05-13T22:39:21.901Z,46.62
2019-05-13T22:41:55.679Z,46.62
2019-05-13T22:44:32.480Z,46.84
2019-05-13T22:47:06.326Z,47.40
2019-05-13T22:49:40.709Z,47.42
2019-05-13T22:52:15.112Z,48.02
2019-05-13T22:54:51.656Z,47.95
2019-05-13T22:57:25.281Z,47.95
2019-05-13T22:59:59.693Z,48.06
2019-05-13T23:02:33.950Z,48.15
2019-05-13T23:05:08.278Z,47.78
2019-05-13T23:07:42.688Z,47.80
2019-05-13T23:10:17.286Z,48.31
2019-05-13T23:12:51.675Z,48.83
2019-05-13T23:15:25.928Z,48.55
2019-05-13T23:18:01.080Z,49.18
2019-05-13T23:20:36.270Z,49.04
2019-05-13T23:23:11.894Z,48.36
2019-05-13T23:25:44.726Z,48.93
2019-05-13T23:28:18.967Z,49.06
2019-05-13T23:30:53.737Z,49.53
2019-05-13T23:33:27.916Z,49.92
2019-05-13T23:36:02.269Z,50.18
2019-05-13T23:38:36.651Z,50.13
2019-05-13T23:41:11.616Z,50.60
2019-05-13T23:43:46.941Z,50.98
2019-05-13T23:46:22.224Z,51.43
2019-05-13T23:48:56.883Z,51.52
2019-05-13T23:51:29.668Z,50.87
2019-05-13T23:54:03.883Z,51.12
2019-05-13T23:56:36.672Z,51.12
2019-05-13T23:59:11.322Z,51.37
